• Join FlightAware (Why Join?)
  • Login
  • US Flag 
Gobble Gobble! 
08:44AM EST


 

Airport Tracker/Info


-or-


 

Live Flight TrackerFlight Track Log ✈ N762VM ✈ 23-Dec-2013 ✈ KLFT - KCXO

Flight Track Log - Related Links

Times and Time Zones

All times are in EST time to prevent confusion due to time zone crossing. See the N762VM flight status page for this flight to view local times or setup timezone preferences in your user account.

Time Position Orientation Groundspeed Altitude Reporting Facility
EST Latitude Longitude Course Direction KTS MPH feet Rate Location/Type
09:30AM 30.2147 -92.1692 246° West 255 293 4,300  Level Houston Center
09:31AM 30.2061 -92.2533 263° West 262 302 5,400 1,080 Climbing Houston Center
09:32AM 30.2031 -92.3269 267° West 259 298 6,600 960 Climbing Houston Center
09:33AM 30.2252 -92.3570 288° West  Level Estimated
09:33AM 30.1939 -92.4225 264° West 251 289 7,400  Level Houston Center
09:34AM 30.1995 -92.4248 246° West  Level FlightAware Approximate
09:34AM 30.1897 -92.5028 267° West 252 290 8,000  Level Houston Center
09:35AM 30.1738 -92.4925 246° West  Level FlightAware Approximate
09:35AM 30.1817 -92.5847 264° West 254 292 8,000  Level Houston Center
09:36AM 30.1756 -92.6647 265° West 253 291 8,000  Level Houston Center
09:37AM 30.1786 -92.7425 273° West 245 282 8,000 -60 Level Houston Center
09:38AM 30.1803 -92.8211 271° West 244 281 7,900  Descending Houston Center
09:39AM 30.1803 -92.8997 270° West 245 282 8,000  Climbing Houston Center
09:40AM 30.1811 -92.9769 271° West 242 278 8,000  Level Houston Center
09:41AM 30.1831 -93.0728 271° West 247 284 8,000  Level Houston Center
09:42AM 30.1839 -93.1533 271° West 250 288 8,000  Level Houston Center
09:43AM 30.1850 -93.2353 271° West 253 291 8,000  Level Houston Center
09:44AM 30.1864 -93.3172 271° West 255 293 8,000  Level Houston Center
09:45AM 30.1856 -93.4000 269° West 255 293 8,000  Level Houston Center
09:46AM 30.1853 -93.4975 270° West 253 291 8,000  Level Houston Center
09:47AM 30.1856 -93.5386 270° West 253 291 8,000  Level Houston Center
09:47AM 30.1881 -93.5633 277° West 253 291 8,000  Level Houston Center
09:48AM 30.1867 -93.6303 269° West 254 292 8,000  Level Houston Center
09:48AM 30.1889 -93.6458 279° West 254 292 8,000  Level Houston Center
09:49AM 30.1878 -93.7003 269° West 254 292 8,000  Level Houston Center
09:49AM 30.1900 -93.7289 275° West 257 296 8,000  Level Houston Center
09:50AM 30.1900 -93.7825 270° West 259 298 8,000  Level Houston Center
09:50AM 30.1900 -93.8119 270° West 258 297 8,000  Level Houston Center
09:51AM 30.1892 -93.8769 269° West 262 302 8,000  Level Houston Center
09:51AM 30.1900 -93.8961 273° West 261 300 8,000 -420 Level Houston Center
09:52AM 30.1889 -93.9567 269° West 264 304 7,600 -900 Descending Houston Center
09:52AM 30.1897 -93.9986 271° West 266 306 7,100 -1,080 Descending Houston Center
09:53AM 30.1881 -94.0514 268° West 261 300 6,400 -1,020 Descending Houston Center
09:53AM 30.1894 -94.0808 273° West 258 297 6,100 -540 Descending Houston Center
09:54AM 30.1883 -94.1383 269° West 260 299 5,900 -240 Descending Houston Center
09:54AM 30.1900 -94.1661 274° West 263 303 5,900  Level Houston Center
09:55AM 30.1897 -94.2156 270° West 270 311 5,900  Level Houston Center
09:55AM 30.1897 -94.2522 270° West 268 308 5,900  Level Houston Center
09:56AM 30.1889 -94.3125 269° West 266 306 5,900  Level Houston Center
09:56AM 30.1908 -94.3372 275° West 266 306 5,900 -240 Level Houston Center
09:57AM 30.1897 -94.4044 269° West 266 306 5,700 -300 Descending Houston Center
09:57AM 30.1917 -94.4231 277° West 266 306 5,600 -660 Descending Houston Center
09:58AM 30.1886 -94.4794 266° West 260 299 5,100 -1,200 Descending Houston Center
09:58AM 30.1900 -94.5181 272° West 262 302 4,400 -1,020 Descending Houston Center
09:59AM 30.1883 -94.5642 268° West 267 307 4,100 -540 Descending Houston Center
09:59AM 30.1875 -94.6025 269° West 263 303 3,900 -120 Descending Houston Center
10:00AM 30.1872 -94.6586 270° West 260 299 4,000  Climbing Houston Center
10:00AM 30.1892 -94.6864 275° West 263 303 3,900 60 Descending Houston Center
10:01AM 30.2025 -94.7317 289° West 256 295 4,100 60 Climbing Houston Center
10:01AM 30.2108 -94.7650 286° West 258 297 4,000  Descending Houston Center
10:02AM 30.2128 -94.8175 272° West 260 299 4,100  Climbing Houston Center
10:03AM 30.2175 -94.8464 281° West 259 298 4,000 -120 Descending Houston Center
10:03AM 30.2328 -94.8947 290° West 254 292 4,000 -600 Level Houston Center
10:04AM 30.2453 -94.9350 290° West 256 295 3,400 -1,020 Descending Houston Center
10:04AM 30.2522 -94.9672 284° West 251 289 3,100 -420 Descending Houston Center
10:05AM 30.2594 -94.9989 285° West 251 289 3,000  Descending Houston Center
10:06AM 30.2656 -95.0931 274° West 254 292 3,100  Climbing Houston Center
10:06AM 30.2586 -95.1236 255° West 267 307 3,000 -600 Descending Houston Center
10:07AM 30.2508 -95.1756 260° West 262 302 2,500 -1,020 Descending Houston Center
10:07AM 30.2533 -95.2042 276° West 245 282 2,000 -840 Descending Houston Center
10:08AM 30.2550 -95.2464 273° West 236 272 1,700 -300 Descending Houston Center
10:08AM 30.2539 -95.2767 268° West 181 208 1,700 60 Level Houston Center
10:09AM 30.2517 -95.3067 265° West 208 239 1,800 180 Climbing Houston Center
10:09AM 30.2553 -95.3394 277° West 184 212 1,900 60 Climbing Houston Center
10:10AM 30.2622 -95.3644 288° West 194 223 1,900 -240 Level Houston Center
10:10AM 30.2731 -95.3953 292° West 193 222 1,700 -420 Descending Houston Center
10:11AM 30.2844 -95.4183 300° West 189 217 1,500 -720 Descending Houston Center
10:11AM 30.3117 -95.4294 341° North 154 177 1,000 -240 Descending Houston Center
10:12AM 30.3239 -95.4411 321° Northwest 183 211 1,300 -420 Climbing Houston Center
10:12AM 30.3406 -95.4211 46° Northeast 112 129 600 -1,620 Descending Houston Center
10:14AM 30.3524 -95.4145 77° East  Level Estimated
10:21AM 30.3524 -95.4145 77° East  Level Estimated
10:22AM 30.3524 -95.4145 77° East  Level Estimated
10:23AM 30.3524 -95.4145 77° East  Level Estimated
10:24AM 30.3524 -95.4145 77° East  Level Estimated
10:25AM 30.3524 -95.4145 77° East  Level Estimated
10:26AM 30.3524 -95.4145 77° East  Level Estimated
10:27AM 30.3524 -95.4145 77° East  Level Estimated
10:28AM 30.3524 -95.4145 77° East  Level Estimated